Time;durP1;ratioP1;P1;durP2;ratioP2;P2;SDS_P1;SDS_P2;PMS_P1;PMS_P2;Temp;Humidity;BMP_temperature;BMP_pressure;BME280_temperature;BME280_humidity;BME280_pressure;Samples;Min_cycle;Max_cycle;Signal;HPM_P1;HPM_P2
2023/10/25 00:01:25;;;;;;;9.00;6.05;;;10.30;99.90;;;;;;4995728;28;20038;-84
2023/10/25 00:03:51;;;;;;;9.13;5.60;;;10.30;99.90;;;;;;5012751;28;20037;-84
2023/10/25 00:06:16;;;;;;;10.52;5.75;;;10.30;99.90;;;;;;4997506;28;20067;-84
2023/10/25 00:08:42;;;;;;;9.05;5.47;;;10.30;99.90;;;;;;5017412;28;20102;-84
2023/10/25 00:11:08;;;;;;;11.27;5.88;;;10.30;99.90;;;;;;4995841;28;20107;-84
2023/10/25 00:13:35;;;;;;;9.35;5.50;;;10.20;99.90;;;;;;5008180;28;20937;-84
2023/10/25 00:16:01;;;;;;;12.63;5.57;;;10.20;99.90;;;;;;5014307;28;20053;-84
2023/10/25 00:18:27;;;;;;;14.05;4.82;;;10.20;99.90;;;;;;4994009;28;20051;-84
2023/10/25 00:20:53;;;;;;;7.45;4.60;;;10.20;99.90;;;;;;5006124;28;20093;-85
2023/10/25 00:23:19;;;;;;;10.77;5.18;;;10.20;99.90;;;;;;4993933;28;20038;-84
2023/10/25 00:25:49;;;;;;;9.82;4.97;;;10.30;99.90;;;;;;4995823;28;20065;-84
2023/10/25 00:28:15;;;;;;;10.63;5.18;;;10.30;99.90;;;;;;4992027;28;20242;-84
2023/10/25 00:30:41;;;;;;;10.23;4.80;;;10.20;99.90;;;;;;4991961;28;20425;-84
2023/10/25 00:33:07;;;;;;;7.18;4.85;;;10.20;99.90;;;;;;5002646;28;20049;-84
2023/10/25 00:35:33;;;;;;;8.50;5.00;;;10.20;99.90;;;;;;4987029;28;20049;-85
2023/10/25 00:37:58;;;;;;;8.75;4.80;;;10.20;99.90;;;;;;5091834;27;20043;-84
2023/10/25 00:40:24;;;;;;;12.90;5.05;;;10.10;99.90;;;;;;5002061;28;20393;-84
2023/10/25 00:42:50;;;;;;;9.38;5.43;;;10.10;99.90;;;;;;5002400;28;20045;-84
2023/10/25 00:45:16;;;;;;;8.20;4.32;;;10.10;99.90;;;;;;4992624;28;20046;-84
2023/10/25 00:47:43;;;;;;;7.97;4.78;;;10.10;99.90;;;;;;4992202;28;20504;-84
2023/10/25 00:50:17;;;;;;;10.23;5.50;;;10.10;99.90;;;;;;4994639;28;20042;-84
2023/10/25 00:52:44;;;;;;;10.23;5.05;;;10.10;99.90;;;;;;4989259;28;20061;-84
2023/10/25 00:55:10;;;;;;;11.48;5.55;;;10.00;99.90;;;;;;4990379;28;20042;-84
2023/10/25 00:57:36;;;;;;;10.43;5.10;;;10.10;99.90;;;;;;4996408;28;20046;-84
2023/10/25 01:00:02;;;;;;;10.73;5.18;;;10.10;99.90;;;;;;5004176;28;20528;-84
2023/10/25 01:02:28;;;;;;;7.65;4.22;;;10.10;99.90;;;;;;4990431;28;20119;-84
2023/10/25 01:04:54;;;;;;;15.07;4.50;;;10.10;99.90;;;;;;4990595;28;20093;-84
2023/10/25 01:07:19;;;;;;;12.63;5.38;;;10.10;99.90;;;;;;5004834;28;20030;-84
2023/10/25 01:09:45;;;;;;;9.98;4.53;;;10.00;99.90;;;;;;5021047;28;20503;-84
2023/10/25 01:12:11;;;;;;;7.82;4.32;;;10.00;99.90;;;;;;4990693;28;20049;-84
2023/10/25 01:14:37;;;;;;;17.02;6.05;;;10.00;99.90;;;;;;5000678;28;20049;-84
2023/10/25 01:17:03;;;;;;;9.25;5.38;;;10.00;99.90;;;;;;5015573;28;20042;-84
2023/10/25 01:19:28;;;;;;;9.13;5.10;;;10.00;99.90;;;;;;4994731;28;20054;-84
2023/10/25 01:21:54;;;;;;;12.30;5.75;;;10.00;99.90;;;;;;4991371;28;20061;-84
2023/10/25 01:24:21;;;;;;;12.40;6.25;;;10.00;99.90;;;;;;5008150;28;20077;-80
2023/10/25 01:26:47;;;;;;;11.05;6.97;;;10.00;99.90;;;;;;5008108;28;20142;-86
2023/10/25 01:29:12;;;;;;;11.77;6.18;;;10.00;99.90;;;;;;5003433;28;20129;-85
2023/10/25 01:31:38;;;;;;;12.00;6.43;;;9.90;99.90;;;;;;5003343;28;20049;-85
2023/10/25 01:34:03;;;;;;;11.73;6.25;;;10.00;99.90;;;;;;5004965;28;20078;-86
2023/10/25 01:36:29;;;;;;;10.75;5.93;;;9.90;99.90;;;;;;4989134;28;20046;-85
2023/10/25 01:38:55;;;;;;;12.93;6.47;;;9.90;99.90;;;;;;5007911;28;20038;-86
2023/10/25 01:41:20;;;;;;;10.73;5.72;;;9.80;99.90;;;;;;5003655;28;20050;-85
2023/10/25 01:43:46;;;;;;;13.85;6.43;;;9.90;99.90;;;;;;5098540;27;20221;-85
2023/10/25 01:46:12;;;;;;;13.45;6.03;;;9.90;99.90;;;;;;5002517;28;20053;-84
2023/10/25 01:48:37;;;;;;;11.32;6.93;;;9.90;99.90;;;;;;4999515;28;20386;-85
2023/10/25 01:51:08;;;;;;;11.50;6.93;;;9.90;99.90;;;;;;5008503;28;20061;-85
2023/10/25 01:53:34;;;;;;;10.93;6.60;;;9.80;99.90;;;;;;4995077;28;20037;-85
2023/10/25 01:56:00;;;;;;;12.52;6.10;;;9.80;99.90;;;;;;4998511;28;20078;-85
2023/10/25 01:58:25;;;;;;;11.70;6.15;;;9.80;99.90;;;;;;5011146;28;20504;-85
2023/10/25 02:00:51;;;;;;;12.95;6.13;;;9.80;99.90;;;;;;4997935;28;20046;-85
2023/10/25 02:03:17;;;;;;;10.90;5.63;;;9.80;99.90;;;;;;4999336;28;20050;-85
2023/10/25 02:05:43;;;;;;;11.38;5.60;;;9.80;99.90;;;;;;5001373;28;20065;-85
2023/10/25 02:08:08;;;;;;;10.15;6.15;;;9.80;99.90;;;;;;5006648;28;20518;-85
2023/10/25 02:10:34;;;;;;;14.32;6.65;;;9.80;99.90;;;;;;5007455;28;20035;-85
2023/10/25 02:13:00;;;;;;;11.05;6.30;;;9.80;99.90;;;;;;5012577;28;20049;-85
2023/10/25 02:15:27;;;;;;;9.10;6.80;;;9.80;99.90;;;;;;5004291;28;20081;-85
2023/10/25 02:17:52;;;;;;;11.85;6.85;;;9.70;99.90;;;;;;5001639;28;20363;-85
2023/10/25 02:20:18;;;;;;;11.25;6.85;;;9.80;99.90;;;;;;4998485;28;20571;-85
2023/10/25 02:22:44;;;;;;;13.05;6.65;;;9.80;99.90;;;;;;4997237;28;20046;-85
2023/10/25 02:25:09;;;;;;;12.70;7.47;;;9.80;99.90;;;;;;4993278;28;20374;-85
2023/10/25 02:27:35;;;;;;;12.27;7.03;;;9.80;99.90;;;;;;4999490;28;20053;-85
2023/10/25 02:30:00;;;;;;;13.20;7.22;;;9.80;99.90;;;;;;4995946;28;20050;-85
2023/10/25 02:32:26;;;;;;;16.13;7.18;;;9.80;99.90;;;;;;4995187;28;20046;-86
2023/10/25 02:34:52;;;;;;;11.35;6.80;;;9.80;99.90;;;;;;5006073;28;20056;-85
2023/10/25 02:37:17;;;;;;;8.55;5.93;;;9.80;99.90;;;;;;4999988;28;20452;-86
2023/10/25 02:39:43;;;;;;;10.38;6.80;;;9.70;99.90;;;;;;5000250;28;20138;-86
2023/10/25 02:42:09;;;;;;;12.95;7.28;;;9.80;99.90;;;;;;4991994;28;20064;-86
2023/10/25 02:44:35;;;;;;;11.88;6.22;;;9.70;99.90;;;;;;4992797;28;20041;-86
2023/10/25 02:47:00;;;;;;;9.63;6.05;;;9.70;99.90;;;;;;4991848;28;20050;-86
2023/10/25 02:49:26;;;;;;;10.18;6.38;;;9.70;99.90;;;;;;5001008;28;20061;-86
2023/10/25 02:51:52;;;;;;;11.10;6.25;;;9.70;99.90;;;;;;4989755;28;20050;-86
2023/10/25 02:54:17;;;;;;;9.68;6.15;;;9.70;99.90;;;;;;5007037;28;20049;-86
2023/10/25 02:56:43;;;;;;;11.45;6.25;;;9.70;99.90;;;;;;4997695;28;20073;-86
2023/10/25 02:59:09;;;;;;;11.05;6.32;;;9.70;99.90;;;;;;4994585;28;20047;-86
2023/10/25 03:01:34;;;;;;;10.88;6.38;;;9.60;99.90;;;;;;4995601;28;20054;-86
2023/10/25 03:04:00;;;;;;;10.80;6.65;;;9.60;99.90;;;;;;5001463;28;20049;-86
2023/10/25 03:06:26;;;;;;;10.07;6.13;;;9.60;99.90;;;;;;4991006;28;20053;-86
2023/10/25 03:08:52;;;;;;;12.13;6.72;;;9.60;99.90;;;;;;4992470;28;20057;-86
2023/10/25 03:11:17;;;;;;;14.60;6.32;;;9.60;99.90;;;;;;5099594;27;20125;-86
2023/10/25 03:13:43;;;;;;;8.68;5.60;;;9.60;99.90;;;;;;4987881;28;20163;-86
2023/10/25 03:16:09;;;;;;;10.00;6.72;;;9.60;99.90;;;;;;4988526;28;20099;-86
2023/10/25 03:18:35;;;;;;;9.57;5.85;;;9.60;99.90;;;;;;4987414;28;26927;-86
2023/10/25 03:21:04;;;;;;;8.48;5.85;;;9.60;99.90;;;;;;4988341;28;20500;-86
2023/10/25 03:23:30;;;;;;;10.43;6.13;;;9.60;99.90;;;;;;4988040;28;20070;-86
2023/10/25 03:26:07;;;;;;;11.75;6.05;;;9.50;99.90;;;;;;4985938;28;20132;-86
2023/10/25 03:28:33;;;;;;;9.05;6.22;;;9.50;99.90;;;;;;4992342;28;20073;-86
2023/10/25 03:31:06;;;;;;;12.18;5.93;;;9.50;99.90;;;;;;4990027;28;20076;-86
2023/10/25 03:33:33;;;;;;;10.85;5.75;;;9.50;99.90;;;;;;4987687;28;20432;-86
2023/10/25 03:36:00;;;;;;;10.85;6.25;;;9.50;99.90;;;;;;5089909;27;20111;-86
2023/10/25 03:38:26;;;;;;;10.75;5.72;;;9.40;99.90;;;;;;4999133;28;20065;-86
2023/10/25 03:41:04;;;;;;;11.60;6.10;;;9.40;99.90;;;;;;4996836;28;20045;-86
2023/10/25 03:43:32;;;;;;;12.80;5.80;;;9.40;99.90;;;;;;4999831;28;20050;-86
2023/10/25 03:46:05;;;;;;;10.20;5.70;;;9.40;99.90;;;;;;4995727;28;20041;-86
2023/10/25 03:48:32;;;;;;;14.60;6.18;;;9.40;99.90;;;;;;4993545;28;20057;-86
2023/10/25 03:50:58;;;;;;;12.23;5.93;;;9.40;99.90;;;;;;5000066;28;20145;-86
2023/10/25 03:53:24;;;;;;;10.25;5.68;;;9.40;99.90;;;;;;4997453;28;20124;-86
2023/10/25 03:55:56;;;;;;;14.57;5.80;;;9.40;99.90;;;;;;4989889;28;20039;-85
2023/10/25 03:58:22;;;;;;;9.77;5.22;;;9.40;99.90;;;;;;4993025;28;20074;-86
2023/10/25 04:00:48;;;;;;;14.55;5.90;;;9.30;99.90;;;;;;5010797;28;20049;-86
2023/10/25 04:03:14;;;;;;;8.98;5.88;;;9.40;99.90;;;;;;5004795;28;20050;-86
2023/10/25 04:05:40;;;;;;;10.93;5.38;;;9.40;99.90;;;;;;5017664;28;20038;-86
2023/10/25 04:08:05;;;;;;;12.55;6.18;;;9.30;99.90;;;;;;5002287;28;20037;-86
2023/10/25 04:10:31;;;;;;;15.15;5.80;;;9.30;99.90;;;;;;4996091;28;20299;-86
2023/10/25 04:12:57;;;;;;;13.48;5.25;;;9.30;99.90;;;;;;5011490;28;20050;-86
2023/10/25 04:15:22;;;;;;;12.77;5.50;;;9.30;99.90;;;;;;4992790;28;20046;-86
2023/10/25 04:17:48;;;;;;;7.68;5.05;;;9.30;99.90;;;;;;4994843;28;20456;-86
2023/10/25 04:20:14;;;;;;;8.45;5.30;;;9.20;99.90;;;;;;5001289;28;20389;-86
2023/10/25 04:22:39;;;;;;;10.23;5.30;;;9.30;99.90;;;;;;5011121;28;20045;-86
2023/10/25 04:25:05;;;;;;;9.98;5.20;;;9.30;99.90;;;;;;4997628;28;20045;-86
2023/10/25 04:27:31;;;;;;;11.65;6.22;;;9.30;99.90;;;;;;4998914;28;20452;-86
2023/10/25 04:29:57;;;;;;;12.52;6.20;;;9.20;99.90;;;;;;5004138;28;20554;-85
2023/10/25 04:32:23;;;;;;;10.68;6.53;;;9.20;99.90;;;;;;4997087;28;20042;-86
2023/10/25 04:34:48;;;;;;;10.98;6.88;;;9.20;99.90;;;;;;5014584;28;20057;-85
2023/10/25 04:37:14;;;;;;;10.07;6.65;;;9.10;99.90;;;;;;5006267;28;20042;-86
2023/10/25 04:39:40;;;;;;;11.15;7.28;;;9.20;99.90;;;;;;5101448;27;20050;-86
2023/10/25 04:42:05;;;;;;;9.95;6.13;;;9.10;99.90;;;;;;4994067;28;20109;-85
2023/10/25 04:44:31;;;;;;;9.73;5.93;;;9.10;99.90;;;;;;4996705;28;20510;-86
2023/10/25 04:46:57;;;;;;;10.27;5.70;;;9.10;99.90;;;;;;5104714;27;20050;-86
2023/10/25 04:49:28;;;;;;;10.23;6.03;;;9.00;99.90;;;;;;4999453;28;20497;-86
2023/10/25 04:51:54;;;;;;;9.30;5.55;;;9.00;99.90;;;;;;5003800;28;20691;-85
2023/10/25 04:54:19;;;;;;;9.85;5.10;;;8.90;99.90;;;;;;5001978;28;20054;-86
2023/10/25 04:56:45;;;;;;;10.43;6.15;;;8.90;99.90;;;;;;5001844;28;20046;-86
2023/10/25 04:59:10;;;;;;;9.40;5.47;;;8.90;99.90;;;;;;4991284;28;20066;-86
2023/10/25 05:01:36;;;;;;;8.30;5.38;;;8.90;99.90;;;;;;4999541;28;20088;-86
2023/10/25 05:04:02;;;;;;;15.27;5.80;;;8.80;99.90;;;;;;4999164;28;20050;-86
2023/10/25 05:06:28;;;;;;;8.48;5.25;;;8.80;99.90;;;;;;4997640;28;20473;-86
2023/10/25 05:08:54;;;;;;;11.27;5.63;;;8.80;99.90;;;;;;4997199;28;20047;-86
2023/10/25 05:11:25;;;;;;;8.70;5.40;;;8.80;99.90;;;;;;4994027;28;20047;-86
2023/10/25 05:13:51;;;;;;;8.90;5.38;;;8.80;99.90;;;;;;4995714;28;20129;-86
2023/10/25 05:16:16;;;;;;;14.18;5.95;;;8.70;99.90;;;;;;4997861;28;20269;-86
2023/10/25 05:18:42;;;;;;;9.73;5.47;;;8.70;99.90;;;;;;4996329;28;20050;-86
2023/10/25 05:21:12;;;;;;;9.88;6.30;;;8.70;99.90;;;;;;4992557;28;20046;-86
2023/10/25 05:23:38;;;;;;;10.40;6.10;;;8.70;99.90;;;;;;4995946;28;20050;-86
2023/10/25 05:26:04;;;;;;;12.27;6.47;;;8.70;99.90;;;;;;4986743;28;20057;-86
2023/10/25 05:28:31;;;;;;;9.93;6.13;;;8.80;99.90;;;;;;4999749;28;20042;-86
2023/10/25 05:31:03;;;;;;;11.00;6.18;;;8.80;99.90;;;;;;4993471;28;20757;-86
2023/10/25 05:33:33;;;;;;;19.92;7.35;;;8.80;99.90;;;;;;4998878;28;20049;-86
2023/10/25 05:36:02;;;;;;;14.45;7.20;;;8.80;99.90;;;;;;4995351;28;20039;-84
2023/10/25 05:38:29;;;;;;;13.07;6.95;;;8.80;99.90;;;;;;5006920;28;20045;-85
2023/10/25 05:40:55;;;;;;;16.98;8.95;;;8.80;99.90;;;;;;4995049;28;20041;-85
2023/10/25 05:43:27;;;;;;;15.13;7.93;;;8.80;99.90;;;;;;5001504;28;20050;-82
2023/10/25 05:45:53;;;;;;;15.52;7.32;;;8.80;99.90;;;;;;5003612;28;20038;-84
2023/10/25 05:48:19;;;;;;;11.52;6.20;;;8.80;99.90;;;;;;4993913;28;20080;-84
2023/10/25 05:50:49;;;;;;;11.60;5.90;;;8.80;99.90;;;;;;4994174;28;20099;-84
2023/10/25 05:53:15;;;;;;;10.63;5.70;;;8.80;99.90;;;;;;5002727;28;20164;-84
2023/10/25 05:55:41;;;;;;;9.15;5.63;;;8.80;99.90;;;;;;5009948;28;20053;-80
2023/10/25 05:58:08;;;;;;;9.73;5.60;;;8.70;99.90;;;;;;5099333;27;20076;-77
2023/10/25 06:00:35;;;;;;;;;;;8.70;99.90;;;;;;5010058;28;20053;-78
2023/10/25 06:03:02;;;;;;;11.18;5.68;;;8.70;99.90;;;;;;4993398;28;19932;-78
2023/10/25 06:05:34;;;;;;;12.45;5.63;;;8.70;99.90;;;;;;5009014;28;20120;-78
2023/10/25 06:08:00;;;;;;;11.57;6.68;;;8.70;99.90;;;;;;5000158;28;20050;-78
2023/10/25 06:10:26;;;;;;;12.63;6.30;;;8.70;99.90;;;;;;4995383;28;20042;-79
2023/10/25 06:12:52;;;;;;;12.25;6.57;;;8.70;99.90;;;;;;5098595;27;20057;-79
2023/10/25 06:15:18;;;;;;;12.10;7.10;;;8.70;99.90;;;;;;4996858;28;20042;-79
2023/10/25 06:17:43;;;;;;;12.07;6.22;;;8.60;99.90;;;;;;5011049;28;20067;-79
2023/10/25 06:20:11;;;;;;;11.00;7.07;;;8.60;99.90;;;;;;5005618;28;20038;-79
2023/10/25 06:22:37;;;;;;;;;;;8.60;99.90;;;;;;5016753;28;20060;-79
2023/10/25 06:25:05;;;;;;;9.23;5.93;;;8.60;99.90;;;;;;5115354;27;20280;-78
2023/10/25 06:27:30;;;;;;;10.60;7.20;;;8.60;99.90;;;;;;5007357;28;20129;-78
2023/10/25 06:29:56;;;;;;;11.82;6.70;;;8.60;99.90;;;;;;5003208;28;20141;-79
2023/10/25 06:32:22;;;;;;;13.55;7.13;;;8.60;99.90;;;;;;4996478;28;20041;-79
2023/10/25 06:34:48;;;;;;;15.73;7.10;;;8.60;99.90;;;;;;5013487;28;20069;-79
2023/10/25 06:37:14;;;;;;;12.85;7.18;;;8.60;99.90;;;;;;5010246;28;20500;-79
2023/10/25 06:39:40;;;;;;;14.13;7.30;;;8.60;99.90;;;;;;4990405;28;20050;-78
2023/10/25 06:42:06;;;;;;;13.65;7.65;;;8.60;99.90;;;;;;4991242;28;20073;-79
2023/10/25 06:44:32;;;;;;;13.70;7.50;;;8.60;99.90;;;;;;5007090;28;20041;-79
2023/10/25 06:46:58;;;;;;;12.27;7.30;;;8.60;99.90;;;;;;4996670;28;20497;-79
2023/10/25 06:49:24;;;;;;;14.93;7.45;;;8.60;99.90;;;;;;5001599;28;20129;-78
2023/10/25 06:51:50;;;;;;;12.25;7.20;;;8.60;99.90;;;;;;5002811;28;20137;-79
2023/10/25 06:54:16;;;;;;;13.43;7.50;;;8.70;99.90;;;;;;5005624;28;20088;-78
2023/10/25 06:56:42;;;;;;;13.63;6.97;;;8.70;99.90;;;;;;5099369;27;20076;-81
2023/10/25 06:59:08;;;;;;;20.35;8.60;;;8.70;99.90;;;;;;5014604;28;20117;-77
2023/10/25 07:01:38;;;;;;;11.20;7.90;;;8.70;99.90;;;;;;4996819;28;20046;-80
2023/10/25 07:04:05;;;;;;;14.77;7.80;;;8.70;99.90;;;;;;4992952;28;20124;-80
2023/10/25 07:06:31;;;;;;;14.63;8.13;;;8.70;99.90;;;;;;5097942;27;20107;-80
2023/10/25 07:08:57;;;;;;;14.38;8.23;;;8.70;99.90;;;;;;5104327;27;20050;-83
2023/10/25 07:11:22;;;;;;;10.45;7.75;;;8.70;99.90;;;;;;5003840;28;20305;-83
2023/10/25 07:13:48;;;;;;;13.35;8.13;;;8.70;99.90;;;;;;4985807;28;20045;-83
2023/10/25 07:16:14;;;;;;;13.13;8.80;;;8.80;99.90;;;;;;5094009;27;20551;-83
2023/10/25 07:18:39;;;;;;;10.80;8.50;;;8.90;99.90;;;;;;5005415;28;20068;-85
2023/10/25 07:21:05;;;;;;;14.55;8.50;;;8.80;99.90;;;;;;4993549;28;20046;-82
2023/10/25 07:23:30;;;;;;;16.05;9.00;;;8.90;99.90;;;;;;4991930;28;20042;-83
2023/10/25 07:25:56;;;;;;;15.25;9.45;;;8.90;99.90;;;;;;4989606;28;20074;-83
2023/10/25 07:28:22;;;;;;;12.32;8.85;;;8.90;99.90;;;;;;4996042;28;20058;-83
2023/10/25 07:30:48;;;;;;;13.70;9.00;;;8.90;99.90;;;;;;4998720;28;20069;-83
2023/10/25 07:33:15;;;;;;;13.68;9.23;;;8.90;99.90;;;;;;4999220;28;20054;-82
2023/10/25 07:35:40;;;;;;;13.38;9.55;;;8.90;99.90;;;;;;5002773;28;20472;-83
2023/10/25 07:38:06;;;;;;;11.85;8.95;;;9.00;99.90;;;;;;4989457;28;20078;-82
2023/10/25 07:40:31;;;;;;;15.40;9.30;;;9.00;99.90;;;;;;4999172;28;20034;-80
2023/10/25 07:42:57;;;;;;;13.48;9.88;;;9.10;99.90;;;;;;5088783;28;20076;-80
2023/10/25 07:45:23;;;;;;;12.25;9.73;;;9.10;99.90;;;;;;4987069;28;20193;-85
2023/10/25 07:47:49;;;;;;;13.07;10.13;;;9.20;99.90;;;;;;4997904;28;20497;-81
2023/10/25 07:50:18;;;;;;;12.52;9.00;;;9.20;99.90;;;;;;5000407;28;20559;-82
2023/10/25 07:52:44;;;;;;;16.20;10.45;;;9.20;99.90;;;;;;5000751;28;20043;-82
2023/10/25 07:55:11;;;;;;;14.40;10.48;;;9.20;99.90;;;;;;4990300;28;20520;-84
2023/10/25 07:57:36;;;;;;;17.00;10.33;;;9.30;99.90;;;;;;5001673;28;20058;-81
2023/10/25 08:00:03;;;;;;;15.98;11.77;;;9.30;99.90;;;;;;5009545;28;20859;-82
2023/10/25 08:02:29;;;;;;;14.43;10.63;;;9.30;99.90;;;;;;4999565;28;20080;-82
2023/10/25 08:04:54;;;;;;;15.88;10.60;;;9.40;99.90;;;;;;4999963;28;20329;-80
2023/10/25 08:07:20;;;;;;;15.82;9.93;;;9.40;99.90;;;;;;5001279;28;20185;-82
2023/10/25 08:09:47;;;;;;;18.52;10.55;;;9.40;99.90;;;;;;4995657;28;20449;-82
2023/10/25 08:12:13;;;;;;;14.60;10.38;;;9.40;99.90;;;;;;5014633;28;20140;-81
2023/10/25 08:14:38;;;;;;;15.13;10.93;;;9.60;99.90;;;;;;5004069;28;20049;-81
2023/10/25 08:17:04;;;;;;;14.10;10.65;;;9.50;99.90;;;;;;5023853;28;20524;-81
2023/10/25 08:19:33;;;;;;;15.25;10.35;;;9.50;99.90;;;;;;5006709;28;20727;-84
2023/10/25 08:21:59;;;;;;;15.60;11.23;;;9.60;99.90;;;;;;5000798;28;20063;-84
2023/10/25 08:24:25;;;;;;;17.27;10.67;;;9.50;99.90;;;;;;4998623;28;20037;-84
2023/10/25 08:26:53;;;;;;;12.57;10.80;;;9.70;99.90;;;;;;4995644;28;20301;-84
2023/10/25 08:29:18;;;;;;;;;;;9.70;99.90;;;;;;5008708;28;20126;-86
2023/10/25 08:31:46;;;;;;;15.25;10.75;;;9.80;99.90;;;;;;5009039;28;20400;-80
2023/10/25 08:34:12;;;;;;;16.05;11.63;;;9.80;99.90;;;;;;4991671;28;20326;-78
2023/10/25 08:36:38;;;;;;;19.00;11.65;;;9.70;99.90;;;;;;4993517;28;20629;-84
2023/10/25 08:39:04;;;;;;;13.27;10.38;;;9.80;99.90;;;;;;4992913;28;20042;-76
2023/10/25 08:41:30;;;;;;;16.27;10.95;;;9.80;99.90;;;;;;4989784;28;20555;-76
2023/10/25 08:43:58;;;;;;;15.35;10.93;;;9.90;99.90;;;;;;5011073;28;20054;-76
2023/10/25 08:46:25;;;;;;;14.43;10.57;;;9.90;99.90;;;;;;4999277;28;20497;-76
2023/10/25 08:48:55;;;;;;;16.35;9.88;;;10.00;99.90;;;;;;4998086;28;20078;-77
2023/10/25 08:51:21;;;;;;;13.85;9.75;;;10.00;99.90;;;;;;5004463;28;20053;-78
2023/10/25 08:53:49;;;;;;;14.52;10.43;;;10.10;99.90;;;;;;5008571;28;20492;-80
2023/10/25 08:56:15;;;;;;;13.90;9.68;;;10.10;99.90;;;;;;5007963;28;20053;-78
2023/10/25 08:58:40;;;;;;;11.93;9.57;;;10.20;99.90;;;;;;5105737;27;20398;-81
2023/10/25 09:01:06;;;;;;;11.60;9.35;;;10.20;99.90;;;;;;5095273;27;20048;-83
2023/10/25 09:03:32;;;;;;;13.45;9.63;;;10.20;99.90;;;;;;5001986;28;20042;-80
2023/10/25 09:06:05;;;;;;;15.70;9.18;;;10.20;99.90;;;;;;5003759;28;20378;-81
2023/10/25 09:08:32;;;;;;;12.90;9.68;;;10.30;99.90;;;;;;5000457;28;20042;-81
2023/10/25 09:11:02;;;;;;;13.27;9.50;;;10.40;99.90;;;;;;5001560;28;20145;-80
2023/10/25 09:13:35;;;;;;;11.98;10.13;;;10.50;99.90;;;;;;4988005;28;20046;-81
2023/10/25 09:16:08;;;;;;;13.15;8.93;;;10.50;99.90;;;;;;4989419;28;20057;-81
2023/10/25 09:18:35;;;;;;;11.98;8.70;;;10.60;99.90;;;;;;5004973;28;20056;-80
2023/10/25 09:21:02;;;;;;;13.23;9.23;;;10.70;99.90;;;;;;4992965;28;20046;-80
2023/10/25 09:23:28;;;;;;;11.23;7.97;;;10.80;99.90;;;;;;4999421;28;20652;-80
2023/10/25 09:25:55;;;;;;;14.10;8.80;;;10.80;99.90;;;;;;5001212;28;20052;-79
2023/10/25 09:28:29;;;;;;;13.85;9.48;;;10.80;99.90;;;;;;5004111;28;20050;-81
2023/10/25 09:30:58;;;;;;;9.63;7.60;;;10.90;99.90;;;;;;4993521;28;20048;-81
2023/10/25 09:33:24;;;;;;;12.48;7.55;;;10.80;99.90;;;;;;5002674;28;20135;-80
2023/10/25 09:35:51;;;;;;;11.75;7.82;;;10.90;99.90;;;;;;4997622;28;20125;-79
2023/10/25 09:38:17;;;;;;;11.10;7.18;;;10.90;99.90;;;;;;5106789;27;20095;-83
2023/10/25 09:40:44;;;;;;;11.43;7.32;;;11.00;99.90;;;;;;4999121;28;20042;-84
2023/10/25 09:43:24;;;;;;;11.88;7.43;;;10.90;99.90;;;;;;4990887;28;20481;-81
2023/10/25 09:45:56;;;;;;;9.18;6.70;;;11.00;99.90;;;;;;5003152;28;20045;-80
2023/10/25 09:48:22;;;;;;;10.95;6.70;;;11.00;99.90;;;;;;5000179;28;20133;-80
2023/10/25 09:51:12;;;;;;;10.25;6.65;;;11.10;99.90;;;;;;5006127;28;20520;-80
2023/10/25 09:53:49;;;;;;;13.65;6.97;;;11.10;99.90;;;;;;5100353;27;20045;-79
2023/10/25 09:56:16;;;;;;;11.63;8.07;;;11.10;99.90;;;;;;5004504;28;20081;-80
2023/10/25 09:58:43;;;;;;;15.40;7.57;;;11.20;99.90;;;;;;4989405;28;20046;-81
2023/10/25 10:01:10;;;;;;;12.23;7.78;;;11.20;99.90;;;;;;5002862;28;20489;-81
2023/10/25 10:04:02;;;;;;;10.70;7.70;;;11.30;99.90;;;;;;4989335;28;20458;-82
2023/10/25 10:06:53;;;;;;;9.75;6.65;;;11.30;99.90;;;;;;4999369;28;20047;-83
2023/10/25 10:09:30;;;;;;;9.35;6.70;;;11.40;99.90;;;;;;4995621;28;20069;-81
2023/10/25 10:12:06;;;;;;;9.57;6.55;;;11.40;99.90;;;;;;5011801;28;20071;-82
2023/10/25 10:14:38;;;;;;;16.00;7.97;;;11.40;99.90;;;;;;5004862;28;20437;-85
2023/10/25 10:17:17;;;;;;;29.23;20.58;;;11.40;99.90;;;;;;4996546;28;20368;-80
2023/10/25 10:19:48;;;;;;;15.85;11.60;;;11.40;99.90;;;;;;4999200;28;20050;-75
2023/10/25 10:22:16;;;;;;;12.02;7.18;;;11.50;99.90;;;;;;5011667;28;20092;-80
2023/10/25 10:24:50;;;;;;;9.95;7.28;;;11.50;99.90;;;;;;5099725;27;20477;-77
2023/10/25 10:27:41;;;;;;;14.05;6.43;;;11.50;99.90;;;;;;5000582;28;20050;-78
2023/10/25 10:30:29;;;;;;;11.00;5.93;;;11.50;99.90;;;;;;4990569;28;20052;-77
2023/10/25 10:32:55;;;;;;;10.25;6.40;;;11.60;99.90;;;;;;4987215;28;20046;-76
2023/10/25 10:35:21;;;;;;;11.15;6.80;;;11.60;99.90;;;;;;4986695;28;20043;-77
2023/10/25 10:37:57;;;;;;;12.13;8.18;;;11.60;99.90;;;;;;5004420;28;20144;-76
2023/10/25 10:40:23;;;;;;;12.45;7.20;;;11.70;99.90;;;;;;5013689;28;20732;-79
2023/10/25 10:42:49;;;;;;;12.57;6.22;;;11.70;99.90;;;;;;4997957;28;20061;-77
2023/10/25 10:45:17;;;;;;;9.95;5.68;;;11.70;99.90;;;;;;5008646;28;20082;-81
2023/10/25 10:47:49;;;;;;;11.35;7.03;;;11.70;99.90;;;;;;5000229;28;20524;-81
2023/10/25 10:50:21;;;;;;;12.73;7.55;;;11.80;99.90;;;;;;4989315;28;20157;-81
2023/10/25 10:52:50;;;;;;;9.57;8.32;;;11.80;99.90;;;;;;4987349;28;20049;-82
2023/10/25 10:55:18;;;;;;;12.48;7.63;;;11.80;99.90;;;;;;4988864;28;20050;-82
2023/10/25 10:57:44;;;;;;;9.18;5.95;;;11.90;99.90;;;;;;4998246;28;20180;-82
2023/10/25 11:00:13;;;;;;;11.23;7.60;;;11.80;99.90;;;;;;4995480;28;20038;-81
2023/10/25 11:02:40;;;;;;;11.98;7.60;;;11.90;99.90;;;;;;5100042;27;20052;-82
2023/10/25 11:05:07;;;;;;;9.95;6.85;;;11.90;99.90;;;;;;5016919;28;20056;-81
2023/10/25 11:07:33;;;;;;;11.95;7.47;;;11.90;99.90;;;;;;5007250;28;20090;-81
2023/10/25 11:09:59;;;;;;;10.25;6.65;;;11.90;99.90;;;;;;4989295;28;20074;-82
2023/10/25 11:12:26;;;;;;;6.85;5.68;;;11.90;99.90;;;;;;4995779;28;20087;-81
2023/10/25 11:14:52;;;;;;;8.90;5.97;;;11.90;99.90;;;;;;4986796;28;20054;-81
2023/10/25 11:17:18;;;;;;;8.52;5.55;;;11.90;99.90;;;;;;5002477;28;20046;-82
2023/10/25 11:19:46;;;;;;;13.15;6.50;;;11.90;99.90;;;;;;5007807;28;20129;-81
2023/10/25 11:22:12;;;;;;;;;;;11.90;99.90;;;;;;4988085;28;20042;-81
2023/10/25 11:24:37;;;;;;;10.43;7.00;;;11.90;99.90;;;;;;4986576;28;19922;-82
2023/10/25 11:27:04;;;;;;;11.43;6.13;;;11.90;99.90;;;;;;4993339;28;20510;-81
2023/10/25 11:29:37;;;;;;;13.32;8.20;;;11.90;99.90;;;;;;4986398;28;20398;-82
2023/10/25 11:32:06;;;;;;;11.10;6.65;;;11.90;99.90;;;;;;4989949;28;20053;-82
2023/10/25 11:34:33;;;;;;;10.90;6.45;;;11.90;99.90;;;;;;4998684;28;20077;-82
2023/10/25 11:37:02;;;;;;;8.07;5.63;;;11.90;99.90;;;;;;4985941;28;20050;-82
2023/10/25 11:39:33;;;;;;;13.48;8.55;;;11.90;99.90;;;;;;4985478;28;20047;-82
2023/10/25 11:41:59;;;;;;;9.05;6.13;;;11.90;99.90;;;;;;5003790;28;20047;-82
2023/10/25 11:44:26;;;;;;;12.35;7.43;;;11.90;99.90;;;;;;4991888;28;20043;-82
2023/10/25 11:46:58;;;;;;;10.20;6.38;;;11.90;99.90;;;;;;4989399;28;20062;-81
2023/10/25 11:49:24;;;;;;;10.23;5.53;;;11.90;99.90;;;;;;5006504;28;20068;-81
2023/10/25 11:51:53;;;;;;;8.68;6.53;;;11.90;99.90;;;;;;5003614;28;20418;-81
2023/10/25 11:54:19;;;;;;;10.75;6.95;;;11.80;99.90;;;;;;5001683;28;20125;-81
2023/10/25 11:56:45;;;;;;;7.60;5.85;;;11.80;99.90;;;;;;4990476;28;20480;-81
2023/10/25 11:59:10;;;;;;;9.73;4.82;;;11.80;99.90;;;;;;4991651;28;20093;-81
2023/10/25 12:01:36;;;;;;;8.20;4.30;;;11.70;99.90;;;;;;5000022;28;20451;-81
2023/10/25 12:04:02;;;;;;;12.50;5.70;;;11.80;99.90;;;;;;5004372;28;20042;-81
2023/10/25 12:06:32;;;;;;;7.53;5.30;;;11.70;99.90;;;;;;5009605;28;20415;-81
2023/10/25 12:08:59;;;;;;;8.38;5.35;;;11.70;99.90;;;;;;5008847;28;20083;-81
2023/10/25 12:11:25;;;;;;;7.85;4.70;;;11.70;99.90;;;;;;5001778;28;20041;-81
2023/10/25 12:13:50;;;;;;;8.52;4.97;;;11.70;99.90;;;;;;4989340;28;20444;-81
2023/10/25 12:16:16;;;;;;;8.27;5.38;;;11.70;99.90;;;;;;4989617;28;20088;-81
2023/10/25 12:18:41;;;;;;;11.95;4.78;;;11.70;99.90;;;;;;4990651;28;20481;-81
2023/10/25 12:21:08;;;;;;;11.43;4.90;;;11.80;99.90;;;;;;4991982;28;20046;-81
2023/10/25 12:23:34;;;;;;;10.02;4.97;;;11.80;99.90;;;;;;4993114;28;20096;-81
2023/10/25 12:26:00;;;;;;;9.90;4.43;;;11.80;99.90;;;;;;4990522;28;20046;-81
2023/10/25 12:28:26;;;;;;;8.10;4.68;;;11.80;99.90;;;;;;4989512;28;20046;-81
2023/10/25 12:30:52;;;;;;;9.15;4.45;;;11.80;99.90;;;;;;5091530;28;20046;-81
2023/10/25 12:33:18;;;;;;;10.85;4.57;;;11.90;99.90;;;;;;4992257;28;20561;-81
2023/10/25 12:35:44;;;;;;;8.88;4.68;;;11.90;99.90;;;;;;5021665;28;20053;-81
2023/10/25 12:38:10;;;;;;;9.73;5.13;;;11.90;99.90;;;;;;5012669;28;20054;-81
2023/10/25 12:40:36;;;;;;;9.07;5.03;;;12.00;99.90;;;;;;4989905;28;20049;-81
2023/10/25 12:43:02;;;;;;;9.25;5.13;;;12.10;99.90;;;;;;4995510;28;20038;-81
2023/10/25 12:45:28;;;;;;;11.18;5.07;;;12.10;99.90;;;;;;4990165;28;20089;-81